Time;durP1;ratioP1;P1;durP2;ratioP2;P2;SDS_P1;SDS_P2;PMS_P1;PMS_P2;Temp;Humidity;BMP_temperature;BMP_pressure;BME280_temperature;BME280_humidity;BME280_pressure;Samples;Min_cycle;Max_cycle;Signal;HPM_P1;HPM_P2
2022/05/12 00:02:10;;;;;;;25.25;8.52;;;;;;;9.95;90.53;99127.19;5084703;28;20051;-71
2022/05/12 00:04:37;;;;;;;29.92;9.50;;;;;;;9.97;90.64;99128.00;5085433;28;20024;-71
2022/05/12 00:07:03;;;;;;;26.83;8.38;;;;;;;9.94;90.36;99112.50;5067195;28;20021;-75
2022/05/12 00:09:28;;;;;;;22.40;7.43;;;;;;;9.92;90.35;99121.19;5066971;28;20057;-71
2022/05/12 00:11:54;;;;;;;22.73;6.78;;;;;;;9.87;90.17;99124.78;5085172;28;20056;-72
2022/05/12 00:14:20;;;;;;;25.92;8.43;;;;;;;9.82;89.64;99111.94;5085035;28;20024;-73
2022/05/12 00:16:46;;;;;;;25.17;7.90;;;;;;;9.83;89.48;99124.00;5067037;28;20063;-72
2022/05/12 00:19:12;;;;;;;27.02;8.75;;;;;;;9.77;89.65;99117.25;5084925;28;20020;-72
2022/05/12 00:21:37;;;;;;;31.08;7.80;;;;;;;9.74;89.58;99117.34;5084787;28;20039;-72
2022/05/12 00:24:03;;;;;;;26.90;8.77;;;;;;;9.72;89.48;99102.69;5084640;28;20020;-73
2022/05/12 00:26:32;;;;;;;23.00;8.85;;;;;;;9.71;89.57;99109.66;5084774;28;20025;-72
2022/05/12 00:28:59;;;;;;;26.98;9.23;;;;;;;9.74;89.79;99112.16;5084766;28;20013;-72
2022/05/12 00:31:25;;;;;;;20.05;8.88;;;;;;;9.75;89.86;99110.41;5084233;28;20078;-72
2022/05/12 00:33:51;;;;;;;22.23;7.80;;;;;;;9.73;89.58;99104.41;5084881;28;20040;-71
2022/05/12 00:36:17;;;;;;;17.17;7.07;;;;;;;9.71;89.44;99112.25;5084810;28;20021;-72
2022/05/12 00:38:42;;;;;;;23.02;7.65;;;;;;;9.73;89.63;99107.00;5084394;28;20041;-72
2022/05/12 00:41:08;;;;;;;27.08;6.55;;;;;;;9.73;89.21;99109.59;5084410;28;20028;-72
2022/05/12 00:43:41;;;;;;;24.65;6.10;;;;;;;9.73;89.28;99119.97;5084650;28;20086;-72
2022/05/12 00:46:15;;;;;;;19.65;6.80;;;;;;;9.66;88.69;99117.50;5084420;28;20117;-71
2022/05/12 00:48:42;;;;;;;32.25;8.48;;;;;;;9.69;88.67;99118.34;5084434;28;20024;-71
2022/05/12 00:51:10;;;;;;;25.45;7.75;;;;;;;9.62;88.49;99110.72;5066139;28;20376;-73
2022/05/12 00:53:36;;;;;;;29.73;8.27;;;;;;;9.62;88.22;99123.69;5083887;28;20027;-72
2022/05/12 00:56:03;;;;;;;26.92;8.00;;;;;;;9.54;88.08;99120.41;5084232;28;20035;-73
2022/05/12 00:58:31;;;;;;;31.58;7.32;;;;;;;9.53;87.86;99123.91;5083990;28;20051;-72
2022/05/12 01:00:56;;;;;;;25.05;6.78;;;;;;;9.50;88.05;99129.16;5084107;28;20023;-72
2022/05/12 01:03:25;;;;;;;18.30;5.55;;;;;;;9.41;88.06;99128.50;5084150;28;20052;-72
2022/05/12 01:05:52;;;;;;;20.85;6.80;;;;;;;9.47;87.92;99142.19;5084115;28;20107;-73
2022/05/12 01:08:19;;;;;;;21.70;7.05;;;;;;;9.46;87.86;99143.06;5083789;28;20058;-72
2022/05/12 01:10:50;;;;;;;16.50;7.00;;;;;;;9.49;88.07;99143.84;5083234;28;20021;-73
2022/05/12 01:13:17;;;;;;;24.00;8.70;;;;;;;9.50;88.11;99135.22;5083953;28;20040;-73
2022/05/12 01:15:54;;;;;;;27.52;6.88;;;;;;;9.48;87.69;99142.16;5084029;28;20020;-74
2022/05/12 01:18:21;;;;;;;26.20;7.20;;;;;;;9.52;87.71;99137.75;5083903;28;20021;-72
2022/05/12 01:20:48;;;;;;;28.08;6.93;;;;;;;9.52;87.42;99137.75;5083687;28;20029;-73
2022/05/12 01:23:33;;;;;;;33.50;8.32;;;;;;;9.59;87.59;99144.47;5065190;28;20016;-74
2022/05/12 01:26:01;;;;;;;20.45;6.28;;;;;;;9.60;87.76;99146.16;5082760;28;20428;-73
2022/05/12 01:28:27;;;;;;;27.67;7.25;;;;;;;9.58;87.54;99147.97;5083583;28;20438;-72
2022/05/12 01:30:52;;;;;;;37.90;9.95;;;;;;;9.59;87.59;99148.81;5083566;28;20032;-73
2022/05/12 01:33:18;;;;;;;19.45;6.45;;;;;;;9.52;87.08;99138.59;5083683;28;20078;-73
2022/05/12 01:35:43;;;;;;;39.95;6.75;;;;;;;9.58;87.16;99147.97;5065585;28;20020;-72
2022/05/12 01:38:09;;;;;;;20.15;5.38;;;;;;;9.59;87.18;99148.81;5083174;28;20068;-73
2022/05/12 01:40:34;;;;;;;23.13;6.38;;;;;;;9.63;86.79;99150.44;5083321;28;20035;-73
2022/05/12 01:43:00;;;;;;;24.67;8.07;;;;;;;9.53;86.77;99150.69;5083337;28;20021;-72
2022/05/12 01:45:26;;;;;;;23.20;6.55;;;;;;;9.62;86.74;99162.53;5083573;28;20027;-74
2022/05/12 01:47:52;;;;;;;21.05;6.32;;;;;;;9.58;86.64;99154.88;5083209;28;20016;-72
2022/05/12 01:50:19;;;;;;;22.67;6.03;;;;;;;9.60;86.78;99158.28;5083152;28;20610;-72
2022/05/12 01:52:45;;;;;;;17.17;4.72;;;;;;;9.57;86.67;99158.38;5064953;28;20396;-73
2022/05/12 01:55:19;;;;;;;27.58;6.13;;;;;;;9.55;86.07;99163.59;5083244;28;20480;-72
2022/05/12 01:57:45;;;;;;;29.02;6.75;;;;;;;9.54;86.40;99167.91;5083127;28;20020;-73
2022/05/12 02:00:15;;;;;;;23.15;6.18;;;;;;;9.55;86.33;99176.53;5082952;28;20023;-72
2022/05/12 02:02:41;;;;;;;18.45;5.65;;;;;;;9.58;86.00;99160.06;5083443;28;20025;-72
2022/05/12 02:05:11;;;;;;;18.20;5.88;;;;;;;9.57;86.17;99166.16;5083332;28;20035;-72
2022/05/12 02:07:40;;;;;;;24.70;6.88;;;;;;;9.51;85.92;99164.53;5083015;28;20082;-72
2022/05/12 02:10:07;;;;;;;13.60;4.28;;;;;;;9.47;85.69;99156.00;5083105;28;20025;-73
2022/05/12 02:12:33;;;;;;;16.80;5.63;;;;;;;9.47;85.65;99156.00;5083177;28;20027;-72
2022/05/12 02:14:58;;;;;;;19.88;4.82;;;;;;;9.52;85.68;99161.06;5083225;28;20021;-73
2022/05/12 02:17:23;;;;;;;17.60;5.13;;;;;;;9.50;85.48;99158.53;5083015;28;20084;-70
2022/05/12 02:19:49;;;;;;;17.40;5.10;;;;;;;9.50;85.34;99161.13;5082843;28;20084;-71
2022/05/12 02:22:14;;;;;;;23.20;5.47;;;;;;;9.46;85.72;99140.47;5086483;28;20024;-71
2022/05/12 02:24:39;;;;;;;24.52;5.38;;;;;;;9.55;85.60;99161.00;5087214;28;20090;-71
2022/05/12 02:27:05;;;;;;;19.90;5.40;;;;;;;9.53;85.37;99155.84;5087026;28;20046;-71
2022/05/12 02:29:30;;;;;;;22.88;5.13;;;;;;;9.51;85.29;99162.81;5086934;28;20443;-71
2022/05/12 02:31:55;;;;;;;16.85;4.63;;;;;;;9.48;85.10;99167.19;5087141;28;20046;-70
2022/05/12 02:34:21;;;;;;;29.20;5.70;;;;;;;9.47;85.23;99157.75;5086822;28;20039;-70
2022/05/12 02:36:59;;;;;;;20.45;4.75;;;;;;;9.45;84.91;99168.13;5086509;28;20048;-70
2022/05/12 02:39:27;;;;;;;24.63;5.03;;;;;;;9.47;84.94;99161.19;5086704;28;20032;-70
2022/05/12 02:41:53;;;;;;;26.63;5.45;;;;;;;9.47;85.01;99171.56;5086683;28;20036;-70
2022/05/12 02:44:18;;;;;;;16.90;4.07;;;;;;;9.41;85.24;99153.53;5086686;28;20032;-72
2022/05/12 02:46:44;;;;;;;21.40;4.95;;;;;;;9.45;85.33;99175.03;5086877;28;20025;-71
2022/05/12 02:49:09;;;;;;;10.55;3.88;;;;;;;9.46;85.02;99168.97;5086435;28;20105;-71
2022/05/12 02:51:35;;;;;;;19.73;4.72;;;;;;;9.45;84.93;99177.63;5086473;28;20020;-71
2022/05/12 02:54:00;;;;;;;23.08;5.65;;;;;;;9.46;85.70;99175.00;5086124;28;20029;-71
2022/05/12 02:56:26;;;;;;;18.80;4.57;;;;;;;9.42;85.25;99171.63;5086479;28;20036;-71
2022/05/12 02:58:51;;;;;;;13.45;2.92;;;;;;;9.47;85.08;99179.31;5086372;28;20085;-72
2022/05/12 03:01:16;;;;;;;19.17;4.70;;;;;;;9.45;85.21;99175.91;5086271;28;20016;-71
2022/05/12 03:03:42;;;;;;;16.48;4.78;;;;;;;9.46;85.48;99179.31;5086345;28;20025;-72
2022/05/12 03:06:07;;;;;;;19.63;4.43;;;;;;;9.49;85.29;99181.88;5086661;28;20081;-73
2022/05/12 03:08:33;;;;;;;24.70;4.20;;;;;;;9.51;84.94;99190.44;5086353;28;20054;-71
2022/05/12 03:10:58;;;;;;;23.65;3.92;;;;;;;9.51;84.95;99191.31;5086212;28;20055;-71
2022/05/12 03:13:24;;;;;;;19.45;4.20;;;;;;;9.50;84.67;99184.44;5086379;28;20082;-71
2022/05/12 03:15:49;;;;;;;21.48;7.30;;;;;;;9.53;84.75;99193.84;5086316;28;20028;-72
2022/05/12 03:18:15;;;;;;;13.32;4.28;;;;;;;9.56;84.88;99198.97;5086180;28;20078;-72
2022/05/12 03:20:41;;;;;;;24.30;5.00;;;;;;;9.60;84.60;99191.97;5085876;28;20478;-71
2022/05/12 03:23:07;;;;;;;16.25;3.35;;;;;;;9.54;84.48;99180.88;5085824;28;20035;-71
2022/05/12 03:25:32;;;;;;;25.98;4.70;;;;;;;9.56;84.22;99191.19;5085896;28;20024;-72
2022/05/12 03:27:59;;;;;;;17.80;4.68;;;;;;;9.55;84.43;99195.50;5084999;28;20499;-72
2022/05/12 03:30:25;;;;;;;18.60;4.57;;;;;;;9.55;84.03;99195.50;5085171;28;20017;-73
2022/05/12 03:32:51;;;;;;;15.50;3.97;;;;;;;9.61;84.21;99191.94;5084778;28;20094;-73
2022/05/12 03:35:16;;;;;;;16.80;4.10;;;;;;;9.60;84.32;99187.63;5085915;28;20111;-72
2022/05/12 03:37:42;;;;;;;13.52;3.95;;;;;;;9.58;84.22;99181.66;5085409;28;20161;-72
2022/05/12 03:40:10;;;;;;;16.42;4.43;;;;;;;9.61;83.92;99191.09;5085830;28;20020;-72
2022/05/12 03:42:35;;;;;;;16.77;3.17;;;;;;;9.63;83.65;99186.72;5085609;28;20108;-72
2022/05/12 03:45:01;;;;;;;12.30;3.47;;;;;;;9.57;83.31;99189.47;5085715;28;20032;-70
2022/05/12 03:47:32;;;;;;;11.85;3.00;;;;;;;9.51;82.94;99188.72;5085556;28;20024;-73
2022/05/12 03:50:04;;;;;;;17.55;3.63;;;;;;;9.48;82.64;99186.19;5085168;28;20031;-73
2022/05/12 03:52:31;;;;;;;13.05;3.00;;;;;;;9.45;82.55;99188.00;5085094;28;20035;-71
2022/05/12 03:54:57;;;;;;;11.65;4.18;;;;;;;9.45;82.99;99172.47;5085705;28;20024;-76
2022/05/12 03:57:23;;;;;;;9.65;2.88;;;;;;;9.44;82.30;99191.50;5085515;28;20047;-73
2022/05/12 03:59:50;;;;;;;10.98;3.15;;;;;;;9.37;82.27;99193.38;5084998;28;20248;-71
2022/05/12 04:02:18;;;;;;;15.07;3.33;;;;;;;9.32;82.27;99198.66;5084977;28;20027;-71
2022/05/12 04:04:46;;;;;;;19.55;3.88;;;;;;;9.38;81.43;99188.16;5084855;28;20032;-72
2022/05/12 04:07:13;;;;;;;13.68;2.65;;;;;;;9.48;81.36;99203.47;5084654;28;20020;-71
2022/05/12 04:09:38;;;;;;;12.90;2.70;;;;;;;9.47;80.81;99210.41;5084417;28;20024;-72
2022/05/12 04:12:11;;;;;;;12.05;2.45;;;;;;;9.50;80.47;99206.88;5084469;28;20140;-72
2022/05/12 04:14:37;;;;;;;23.27;4.78;;;;;;;9.42;79.91;99218.25;5084184;28;20048;-72
2022/05/12 04:17:03;;;;;;;11.30;2.67;;;;;;;9.41;80.39;99213.13;5083800;28;20024;-72
2022/05/12 04:19:29;;;;;;;11.20;2.65;;;;;;;9.45;80.31;99225.13;5083335;28;20113;-72
2022/05/12 04:21:54;;;;;;;13.20;3.03;;;;;;;9.52;80.76;99215.47;5083607;28;20029;-73
2022/05/12 04:24:20;;;;;;;11.30;2.50;;;;;;;9.71;80.41;99210.72;5084070;28;20026;-73
2022/05/12 04:26:46;;;;;;;9.55;2.20;;;;;;;10.10;79.70;99209.75;5084167;28;20099;-73
2022/05/12 04:29:12;;;;;;;19.23;3.38;;;;;;;10.17;78.42;99205.25;5066151;28;20017;-73
2022/05/12 04:31:38;;;;;;;15.75;3.38;;;;;;;10.16;77.66;99207.00;5084080;28;20345;-72
2022/05/12 04:36:47;;;;;;;12.05;2.22;;;;;;;10.25;77.87;99228.41;5084095;28;20056;-72
2022/05/12 04:39:12;;;;;;;15.00;2.83;;;;;;;10.22;76.47;99244.03;5083684;28;20028;-72
2022/05/12 04:41:38;;;;;;;13.10;2.78;;;;;;;10.14;75.90;99234.69;5084056;28;20512;-72
2022/05/12 04:44:05;;;;;;;14.15;2.90;;;;;;;10.13;75.21;99227.81;5083774;28;20436;-73
2022/05/12 04:46:31;;;;;;;26.92;3.45;;;;;;;10.03;75.40;99237.56;5083957;28;20025;-72
2022/05/12 04:48:56;;;;;;;18.85;3.42;;;;;;;10.11;76.13;99242.56;5084060;28;20023;-72
2022/05/12 04:51:22;;;;;;;17.20;3.75;;;;;;;10.21;75.21;99229.38;5083918;28;20038;-71
2022/05/12 04:53:48;;;;;;;21.10;2.90;;;;;;;10.13;74.14;99226.97;5083573;28;20035;-72
2022/05/12 04:56:13;;;;;;;8.88;2.20;;;;;;;10.05;74.07;99224.56;5083599;28;20104;-71
2022/05/12 04:58:39;;;;;;;10.25;2.30;;;;;;;10.02;73.90;99241.06;5083356;28;20024;-74
2022/05/12 05:01:05;;;;;;;13.98;2.72;;;;;;;9.99;74.11;99242.88;5065446;28;20020;-73
2022/05/12 05:03:30;;;;;;;15.82;2.55;;;;;;;9.90;74.16;99228.41;5083778;28;20035;-73
2022/05/12 05:05:55;;;;;;;16.10;3.25;;;;;;;9.98;74.44;99244.63;5083674;28;20016;-73
2022/05/12 05:08:23;;;;;;;13.63;2.90;;;;;;;10.01;74.69;99243.69;5083505;28;20020;-74
2022/05/12 05:10:49;;;;;;;14.00;2.63;;;;;;;10.07;75.00;99251.31;5065451;28;20028;-73
2022/05/12 05:13:18;;;;;;;21.67;3.38;;;;;;;10.04;74.59;99248.81;5083370;28;20024;-72
2022/05/12 05:15:45;;;;;;;20.63;4.38;;;;;;;10.04;74.09;99254.00;5083505;28;20027;-71
2022/05/12 05:18:12;;;;;;;16.35;3.13;;;;;;;9.91;73.82;99235.28;5065655;28;20439;-72
2022/05/12 05:20:37;;;;;;;12.85;2.65;;;;;;;9.83;74.07;99248.44;5083486;28;20021;-71
2022/05/12 05:23:03;;;;;;;15.93;3.47;;;;;;;9.90;74.60;99267.28;5083381;28;20510;-72
2022/05/12 05:25:31;;;;;;;9.63;1.80;;;;;;;9.92;74.56;99253.41;5065337;28;20351;-73
2022/05/12 05:27:57;;;;;;;6.47;1.65;;;;;;;9.97;73.42;99252.44;5083464;28;20028;-72
2022/05/12 05:30:24;;;;;;;13.32;2.42;;;;;;;10.09;73.57;99254.72;5083138;28;20154;-72
2022/05/12 05:32:50;;;;;;;14.07;2.03;;;;;;;10.19;72.16;99255.34;5083267;28;20344;-71
2022/05/12 05:35:16;;;;;;;12.43;2.03;;;;;;;10.28;71.97;99257.72;5083140;28;20452;-70
2022/05/12 05:37:42;;;;;;;10.77;1.75;;;;;;;10.76;71.86;99267.75;5082890;28;20173;-72
2022/05/12 05:40:09;;;;;;;11.82;2.80;;;;;;;10.93;71.00;99258.63;5082470;28;20028;-71
2022/05/12 05:42:35;;;;;;;13.48;3.25;;;;;;;10.86;69.77;99273.53;5082792;28;20028;-72
2022/05/12 05:45:08;;;;;;;11.65;1.88;;;;;;;10.84;69.30;99272.72;5083050;28;20169;-72
2022/05/12 05:47:34;;;;;;;12.35;2.60;;;;;;;11.06;69.63;99275.56;5064996;28;20027;-72
2022/05/12 05:50:00;;;;;;;11.02;2.42;;;;;;;11.10;69.82;99279.75;5082865;28;20047;-72
2022/05/12 05:55:09;;;;;;;13.38;2.65;;;;;;;11.10;68.53;99297.94;5082527;28;20032;-72
2022/05/12 05:57:36;;;;;;;12.73;2.58;;;;;;;11.18;69.33;99295.16;5064785;28;20434;-72
2022/05/12 06:00:05;;;;;;;11.63;2.20;;;;;;;11.39;69.00;99293.66;5082653;28;20031;-72
2022/05/12 06:02:31;;;;;;;11.35;2.45;;;;;;;11.79;68.22;99306.31;5082729;28;20040;-71
2022/05/12 06:04:57;;;;;;;7.43;2.22;;;;;;;12.23;67.62;99302.38;5082986;28;20024;-72
2022/05/12 06:07:23;;;;;;;8.40;2.55;;;;;;;12.55;65.85;99308.25;5082332;28;20029;-71
2022/05/12 06:09:48;;;;;;;10.75;1.92;;;;;;;12.46;63.52;99311.19;5083108;28;20330;-70
2022/05/12 06:12:14;;;;;;;11.32;2.08;;;;;;;12.20;63.61;99325.91;5082712;28;20044;-71
2022/05/12 06:14:39;;;;;;;10.75;2.72;;;;;;;12.06;63.45;99323.72;5082811;28;20077;-72
2022/05/12 06:17:05;;;;;;;5.63;1.90;;;;;;;12.12;63.58;99303.56;5082894;28;20075;-73
2022/05/12 06:19:30;;;;;;;17.17;2.58;;;;;;;11.97;64.39;99327.44;5082564;28;20016;-74
2022/05/12 06:21:56;;;;;;;15.13;2.85;;;;;;;11.99;64.81;99338.66;5082632;28;20088;-73
2022/05/12 06:24:21;;;;;;;15.88;2.90;;;;;;;12.06;65.08;99334.94;5082449;28;20024;-74
2022/05/12 06:26:47;;;;;;;13.40;2.67;;;;;;;11.96;64.76;99331.81;5082582;28;20029;-73
2022/05/12 06:29:12;;;;;;;14.10;2.70;;;;;;;11.84;64.75;99343.44;5082518;28;20032;-73
2022/05/12 06:31:39;;;;;;;14.10;2.63;;;;;;;11.77;64.74;99354.94;5082702;28;20046;-73
2022/05/12 06:34:05;;;;;;;9.57;1.95;;;;;;;11.80;65.51;99360.03;5082711;28;20261;-72
2022/05/12 06:36:30;;;;;;;13.52;2.65;;;;;;;11.88;64.62;99354.59;5082619;28;20017;-71
2022/05/12 06:38:55;;;;;;;7.88;1.98;;;;;;;11.91;64.56;99367.50;5064091;28;20046;-73
2022/05/12 06:41:20;;;;;;;15.65;2.38;;;;;;;11.88;64.59;99365.88;5082586;28;20127;-73
2022/05/12 06:43:46;;;;;;;13.88;2.97;;;;;;;11.75;65.07;99369.72;5082424;28;20602;-72
2022/05/12 06:46:15;;;;;;;15.50;3.55;;;;;;;11.74;65.48;99381.88;5082599;28;20076;-72
2022/05/12 06:48:42;;;;;;;16.10;2.40;;;;;;;11.57;65.12;99381.50;5082635;28;20025;-73
2022/05/12 06:51:08;;;;;;;14.30;2.53;;;;;;;11.40;65.49;99367.28;5082509;28;20082;-72
2022/05/12 06:53:34;;;;;;;12.38;2.25;;;;;;;11.31;66.07;99378.75;5082296;28;20017;-73
2022/05/12 06:55:59;;;;;;;17.52;3.15;;;;;;;11.36;66.73;99383.81;5082354;28;20102;-72
2022/05/12 06:58:24;;;;;;;14.35;2.50;;;;;;;11.40;66.50;99388.91;5082473;28;20020;-73
2022/05/12 07:00:50;;;;;;;17.13;3.25;;;;;;;11.61;67.27;99386.56;5082294;28;20256;-73
2022/05/12 07:03:16;;;;;;;13.50;2.22;;;;;;;11.89;65.75;99390.09;5064374;28;20032;-73
2022/05/12 07:05:42;;;;;;;13.05;2.38;;;;;;;12.00;65.75;99405.38;5064313;28;20035;-73
2022/05/12 07:08:08;;;;;;;20.33;2.92;;;;;;;12.01;65.45;99401.91;5085363;28;20092;-73
2022/05/12 07:10:34;;;;;;;13.20;2.50;;;;;;;11.97;65.18;99393.34;5085928;28;20028;-72
2022/05/12 07:12:59;;;;;;;14.13;2.22;;;;;;;11.97;64.66;99402.88;5085957;28;20029;-72
2022/05/12 07:15:27;;;;;;;11.52;2.20;;;;;;;12.04;64.90;99412.22;5067976;28;20031;-73
2022/05/12 07:17:57;;;;;;;12.98;2.85;;;;;;;12.22;64.72;99394.38;5085997;28;20020;-72
2022/05/12 07:28:38;;;;;;;12.55;2.10;;;;;;;12.58;62.90;99420.09;5084842;28;20024;-72
2022/05/12 07:31:09;;;;;;;16.88;2.90;;;;;;;12.88;62.72;99422.59;5084812;28;20028;-72
2022/05/12 07:33:46;;;;;;;19.48;4.75;;;;;;;13.25;61.82;99428.28;5085712;28;20467;-74
2022/05/12 07:36:13;;;;;;;18.98;2.85;;;;;;;13.65;59.17;99439.94;5085515;28;20104;-72
2022/05/12 07:38:38;;;;;;;14.52;2.67;;;;;;;13.56;58.55;99434.16;5084968;28;20102;-72
2022/05/12 07:41:09;;;;;;;11.30;2.28;;;;;;;13.58;58.57;99434.97;5085569;28;20028;-72
2022/05/12 07:43:35;;;;;;;14.40;3.10;;;;;;;13.98;58.07;99463.94;5085696;28;20484;-73
2022/05/12 07:46:00;;;;;;;13.02;2.95;;;;;;;14.75;56.36;99461.81;5085648;28;20021;-72
2022/05/12 07:48:25;;;;;;;10.25;2.63;;;;;;;14.91;55.28;99476.03;5085409;28;20046;-72
2022/05/12 07:50:51;;;;;;;13.63;2.33;;;;;;;15.13;53.92;99464.69;5085440;28;20033;-72
2022/05/12 07:53:16;;;;;;;11.63;2.50;;;;;;;15.56;53.16;99470.66;5084755;28;20052;-72
2022/05/12 07:55:41;;;;;;;7.45;2.17;;;;;;;15.79;50.32;99479.25;5084416;28;20020;-72
2022/05/12 07:58:07;;;;;;;12.23;1.67;;;;;;;15.97;49.97;99461.00;5084294;28;20080;-72
2022/05/12 08:00:33;;;;;;;6.25;1.58;;;;;;;16.08;49.45;99479.72;5065762;28;20062;-71
2022/05/12 08:02:59;;;;;;;12.05;2.30;;;;;;;16.29;48.93;99486.63;5084526;28;20035;-72
2022/05/12 08:05:25;;;;;;;23.30;3.75;;;;;;;16.35;49.68;99495.06;5066250;28;20044;-71
2022/05/12 08:07:52;;;;;;;10.40;2.67;;;;;;;16.17;49.50;99502.00;5084987;28;20021;-71
2022/05/12 08:10:18;;;;;;;13.18;1.92;;;;;;;16.27;49.89;99498.94;5085356;28;20082;-71
2022/05/12 08:12:43;;;;;;;10.98;2.17;;;;;;;16.54;47.59;99486.31;5085375;28;20040;-71
2022/05/12 08:15:13;;;;;;;5.25;1.38;;;;;;;16.70;46.35;99496.91;5085564;28;20020;-72
2022/05/12 08:17:38;;;;;;;7.80;2.50;;;;;;;16.90;46.36;99523.06;5085312;28;20033;-73
2022/05/12 08:20:09;;;;;;;10.80;1.83;;;;;;;16.81;45.94;99516.47;5084746;28;20013;-72
2022/05/12 08:22:34;;;;;;;16.25;2.67;;;;;;;16.34;46.62;99503.00;5084865;28;20062;-71
2022/05/12 08:25:00;;;;;;;10.90;1.77;;;;;;;16.20;46.72;99524.56;5085222;28;20032;-70
2022/05/12 08:27:26;;;;;;;10.38;2.38;;;;;;;16.13;47.31;99538.88;5085272;28;20051;-72
2022/05/12 08:29:52;;;;;;;9.98;2.50;;;;;;;16.42;47.40;99536.69;5085150;28;20016;-72
2022/05/12 08:32:18;;;;;;;10.18;2.28;;;;;;;16.32;47.09;99537.13;5084939;28;20028;-73
2022/05/12 08:34:44;;;;;;;15.23;2.90;;;;;;;16.31;47.70;99538.00;5084913;28;20056;-71
2022/05/12 08:37:10;;;;;;;11.80;3.17;;;;;;;16.40;47.90;99560.31;5084779;28;20033;-73
2022/05/12 08:39:36;;;;;;;12.32;2.72;;;;;;;17.00;46.28;99545.28;5084708;28;20065;-72
2022/05/12 08:42:09;;;;;;;14.27;3.03;;;;;;;17.28;45.19;99559.69;5084874;28;20024;-72
2022/05/12 08:44:38;;;;;;;12.60;2.97;;;;;;;17.21;46.08;99574.88;5066798;28;20031;-71
2022/05/12 08:47:06;;;;;;;9.27;2.10;;;;;;;17.69;45.05;99565.50;5066684;28;20024;-71
2022/05/12 08:49:46;;;;;;;4.70;1.55;;;;;;;17.98;43.74;99562.28;5084683;28;20021;-73
2022/05/12 08:52:52;;;;;;;11.45;2.80;;;;;;;17.44;44.49;99570.22;5066496;28;20020;-72
2022/05/12 08:55:28;;;;;;;16.77;3.35;;;;;;;17.10;45.54;99587.66;5066699;28;20374;-73
2022/05/12 08:58:01;;;;;;;12.45;2.85;;;;;;;17.21;45.13;99595.00;5084519;28;20017;-73
2022/05/12 09:00:33;;;;;;;15.73;3.28;;;;;;;17.14;45.92;99609.34;5084255;28;20047;-72
2022/05/12 09:03:19;;;;;;;16.98;3.63;;;;;;;17.58;46.31;99614.16;5084796;28;20269;-72
2022/05/12 09:06:09;;;;;;;6.38;1.63;;;;;;;18.02;42.98;99588.28;5066243;28;20028;-72
2022/05/12 09:08:46;;;;;;;15.63;3.55;;;;;;;17.92;44.30;99622.06;5084140;28;20017;-73
2022/05/12 09:11:40;;;;;;;12.43;2.83;;;;;;;18.18;42.90;99608.50;5084166;28;20040;-72
2022/05/12 09:14:15;;;;;;;9.55;2.90;;;;;;;18.00;42.72;99595.41;5084111;28;20044;-72
2022/05/12 09:16:40;;;;;;;14.00;2.58;;;;;;;18.00;43.64;99608.56;5084143;28;20036;-72
2022/05/12 09:19:06;;;;;;;12.25;3.00;;;;;;;18.20;42.85;99606.66;5083828;28;20016;-72
2022/05/12 09:21:35;;;;;;;18.73;3.95;;;;;;;18.32;42.88;99620.94;5083783;28;20048;-72
2022/05/12 09:24:03;;;;;;;15.55;4.05;;;;;;;18.15;42.92;99604.28;5083657;28;20024;-72
2022/05/12 09:26:31;;;;;;;11.98;2.90;;;;;;;18.33;42.65;99620.00;5083858;28;20020;-72
2022/05/12 09:29:10;;;;;;;19.58;3.28;;;;;;;18.47;42.97;99627.13;5083864;28;20032;-72
2022/05/12 09:31:36;;;;;;;11.90;3.08;;;;;;;18.69;42.15;99625.97;5064778;28;20115;-72
2022/05/12 09:34:16;;;;;;;17.55;3.70;;;;;;;18.62;43.10;99635.97;5083679;28;20412;-73
2022/05/12 09:36:41;;;;;;;14.10;3.38;;;;;;;18.53;43.19;99624.16;5065582;28;20020;-73
2022/05/12 09:39:07;;;;;;;24.17;3.97;;;;;;;18.07;44.01;99633.56;5083161;28;20046;-72
2022/05/12 09:41:44;;;;;;;16.90;3.88;;;;;;;17.76;45.45;99632.53;5083343;28;20024;-73
2022/05/12 09:44:21;;;;;;;15.00;3.38;;;;;;;18.25;45.74;99615.16;5065604;28;20021;-72
2022/05/12 09:47:01;;;;;;;12.05;3.45;;;;;;;18.72;43.24;99617.91;5083585;28;20028;-73
2022/05/12 09:49:33;;;;;;;15.68;3.92;;;;;;;18.55;43.23;99638.06;5083636;28;20080;-72
2022/05/12 09:52:15;;;;;;;15.80;2.45;;;;;;;18.83;42.32;99627.84;5083685;28;20039;-70
2022/05/12 09:54:41;;;;;;;14.80;2.95;;;;;;;18.83;42.19;99630.47;5083325;28;20024;-72
2022/05/12 09:57:12;;;;;;;15.30;2.45;;;;;;;18.48;42.46;99659.53;5083246;28;20084;-72
2022/05/12 09:59:40;;;;;;;17.55;3.22;;;;;;;18.08;44.29;99643.13;5083376;28;20029;-71
2022/05/12 10:07:53;;;;;;;18.67;5.03;;;;;;;18.38;44.23;99651.28;5065187;28;20089;-73
2022/05/12 10:08:30;;;;;;;15.13;2.60;;;;;;;17.11;45.68;99678.50;5083118;28;20054;-71
2022/05/12 10:11:00;;;;;;;19.23;4.10;;;;;;;16.57;46.92;99697.53;5038163;28;20504;-71
2022/05/12 10:13:48;;;;;;;14.73;3.90;;;;;;;16.37;48.67;99706.28;5083352;28;20048;-71
2022/05/12 10:16:16;;;;;;;16.00;3.25;;;;;;;16.56;47.78;99688.00;5064989;28;20040;-71
2022/05/12 10:18:45;;;;;;;13.02;2.83;;;;;;;16.81;47.21;99684.22;5083236;28;20156;-71
2022/05/12 10:21:21;;;;;;;20.15;3.53;;;;;;;16.65;47.13;99718.16;5083147;28;20439;-70
2022/05/12 10:24:02;;;;;;;13.57;3.53;;;;;;;16.17;48.07;99721.09;5082694;28;20028;-72
2022/05/12 10:26:54;;;;;;;20.20;3.20;;;;;;;15.57;49.66;99720.03;5064439;28;20047;-73
2022/05/12 10:29:29;;;;;;;21.15;3.45;;;;;;;15.23;51.02;99736.16;5082210;28;20040;-73
2022/05/12 10:32:27;;;;;;;20.58;4.07;;;;;;;15.32;51.33;99726.25;5082691;28;20024;-74
2022/05/12 10:35:08;;;;;;;17.52;4.10;;;;;;;15.25;51.93;99736.09;5083258;28;20449;-72
2022/05/12 10:37:53;;;;;;;19.52;3.60;;;;;;;15.47;51.49;99743.09;5064913;28;20059;-74
2022/05/12 10:40:38;;;;;;;12.18;2.65;;;;;;;15.42;50.79;99751.13;5083069;28;20433;-73
2022/05/12 10:43:22;;;;;;;17.60;3.30;;;;;;;15.35;51.46;99762.75;5086562;28;20016;-73
2022/05/12 10:46:12;;;;;;;15.75;4.15;;;;;;;15.45;51.19;99761.47;5086835;28;20337;-73
2022/05/12 10:49:03;;;;;;;11.38;3.50;;;;;;;15.55;50.48;99759.34;5086869;28;20036;-74
2022/05/12 10:51:37;;;;;;;13.50;3.30;;;;;;;16.01;50.36;99761.03;5086714;28;20028;-74
2022/05/12 10:54:10;;;;;;;13.25;2.80;;;;;;;16.34;49.44;99755.28;5086501;28;20031;-72
2022/05/12 10:56:38;;;;;;;15.32;3.25;;;;;;;16.36;48.20;99739.47;5068642;28;20433;-74
2022/05/12 10:59:16;;;;;;;9.13;3.80;;;;;;;16.03;48.59;99772.28;5086437;28;20021;-74
2022/05/12 11:02:11;;;;;;;14.52;3.97;;;;;;;15.60;50.12;99767.00;5068302;28;20021;-73
2022/05/12 11:04:47;;;;;;;13.75;3.00;;;;;;;15.57;50.33;99754.91;5086617;28;20089;-73
2022/05/12 11:07:27;;;;;;;13.48;2.60;;;;;;;15.30;49.39;99762.06;5086577;28;20024;-74
2022/05/12 11:10:08;;;;;;;15.15;2.80;;;;;;;15.06;50.67;99757.72;5086486;28;20025;-74
2022/05/12 11:12:46;;;;;;;11.02;3.10;;;;;;;14.83;50.78;99759.41;5086457;28;20024;-74
2022/05/12 11:15:18;;;;;;;17.10;3.38;;;;;;;14.81;50.96;99787.34;5086347;28;20054;-72
2022/05/12 11:18:11;;;;;;;13.52;3.70;;;;;;;14.75;50.81;99780.56;5086827;28;20024;-71
2022/05/12 11:20:42;;;;;;;16.70;3.05;;;;;;;14.72;51.51;99785.03;5086235;28;20027;-72
2022/05/12 11:23:17;;;;;;;12.65;2.50;;;;;;;14.61;51.10;99783.69;5086257;28;20356;-70
2022/05/12 11:25:53;;;;;;;16.45;3.30;;;;;;;14.31;51.49;99790.81;5086260;28;20044;-72
2022/05/12 11:32:08;;;;;;;12.88;3.03;;;;;;;13.79;52.93;99795.06;5069620;28;20070;-72
2022/05/12 11:34:35;;;;;;;17.77;3.05;;;;;;;13.81;54.15;99795.88;5086138;28;20028;-73
2022/05/12 11:37:26;;;;;;;9.02;2.05;;;;;;;13.87;54.17;99795.69;5086101;28;20036;-71
2022/05/12 11:39:54;;;;;;;11.10;2.40;;;;;;;13.89;54.15;99806.06;5085685;28;20064;-72
2022/05/12 11:44:23;;;;;;;13.98;2.60;;;;;;;13.81;54.69;99801.09;5085828;28;20049;-72
2022/05/12 11:45:34;;;;;;;22.13;2.92;;;;;;;13.74;54.49;99790.00;5085608;28;20135;-71
2022/05/12 11:48:11;;;;;;;16.13;3.22;;;;;;;13.71;55.04;99792.72;5085925;28;20024;-69
2022/05/12 11:51:01;;;;;;;7.55;1.83;;;;;;;13.50;55.00;99795.09;5085698;28;20031;-71
2022/05/12 11:53:46;;;;;;;12.45;2.92;;;;;;;13.41;55.33;99797.06;5066488;28;20378;-71
2022/05/12 11:56:12;;;;;;;11.30;3.17;;;;;;;13.31;55.71;99810.38;5085799;28;20031;-72
2022/05/12 11:58:48;;;;;;;18.17;3.10;;;;;;;13.23;56.70;99814.97;5085537;28;20031;-70
2022/05/12 12:01:36;;;;;;;15.38;3.17;;;;;;;13.27;56.92;99803.56;5085708;28;20025;-71